createdAt,value
2019-03-09T00:04:17.738Z,10.45
2019-03-09T00:14:22.651Z,9.05
2019-03-09T00:24:29.194Z,9.43
2019-03-09T00:34:34.126Z,11.67
2019-03-09T00:44:38.995Z,13.27
2019-03-09T00:54:44.220Z,27.03
2019-03-09T01:04:49.128Z,12.53
2019-03-09T01:14:54.017Z,8.03
2019-03-09T01:24:58.884Z,8.00
2019-03-09T01:35:05.594Z,9.35
2019-03-09T01:45:13.094Z,7.78
2019-03-09T01:55:18.029Z,9.00
2019-03-09T02:05:22.923Z,8.93
2019-03-09T02:15:27.811Z,8.17
2019-03-09T02:25:32.697Z,7.87
2019-03-09T02:35:37.563Z,6.93
2019-03-09T02:45:42.459Z,7.27
2019-03-09T02:55:47.423Z,9.40
2019-03-09T03:05:52.344Z,9.43
2019-03-09T03:15:57.214Z,8.93
2019-03-09T03:26:02.084Z,11.80
2019-03-09T03:36:06.976Z,10.47
2019-03-09T03:46:11.922Z,11.07
2019-03-09T03:56:16.882Z,11.20
2019-03-09T04:06:22.120Z,11.55
2019-03-09T04:16:27.043Z,11.73
2019-03-09T04:26:32.019Z,13.00
2019-03-09T04:36:36.891Z,11.57
2019-03-09T04:46:41.781Z,13.72
2019-03-09T04:56:46.729Z,12.57
2019-03-09T05:06:51.598Z,10.87
2019-03-09T05:16:56.473Z,10.77
2019-03-09T05:27:01.345Z,10.07
2019-03-09T05:37:06.237Z,12.80
2019-03-09T05:47:11.105Z,12.25
2019-03-09T05:57:16.030Z,10.10
2019-03-09T06:07:20.876Z,9.27
2019-03-09T06:17:26.902Z,9.90
2019-03-09T06:27:32.510Z,21.33
2019-03-09T06:37:37.372Z,8.60
2019-03-09T06:47:42.279Z,9.30
2019-03-09T06:57:47.142Z,9.07
2019-03-09T07:07:52.129Z,9.03
2019-03-09T07:17:59.107Z,6.77
2019-03-09T07:28:09.339Z,17.25
2019-03-09T07:38:15.348Z,7.20
2019-03-09T07:48:20.216Z,5.37
2019-03-09T07:58:25.132Z,7.70
2019-03-09T08:08:30.000Z,4.40
2019-03-09T08:18:34.916Z,4.40
2019-03-09T08:28:39.791Z,3.73
2019-03-09T08:38:44.681Z,4.07
2019-03-09T08:48:49.560Z,3.87
2019-03-09T08:58:54.535Z,4.10
2019-03-09T09:08:59.450Z,2.47
2019-03-09T09:19:05.884Z,5.73
2019-03-09T09:29:10.774Z,2.92
2019-03-09T09:39:15.653Z,2.33
2019-03-09T09:49:20.526Z,7.17
2019-03-09T09:59:25.429Z,4.57
2019-03-09T10:09:30.331Z,1.43
2019-03-09T10:19:35.209Z,3.20
2019-03-09T10:29:40.083Z,1.87
2019-03-09T10:39:44.968Z,2.70
2019-03-09T10:49:49.866Z,3.07
2019-03-09T10:59:54.760Z,2.20
2019-03-09T11:09:59.650Z,1.33
2019-03-09T11:20:08.018Z,4.43
2019-03-09T11:30:26.499Z,3.13
2019-03-09T11:40:31.483Z,3.87
2019-03-09T11:50:36.376Z,4.67
2019-03-09T12:00:42.863Z,5.47
2019-03-09T12:10:47.724Z,4.37
2019-03-09T12:20:52.599Z,6.83
2019-03-09T12:30:57.516Z,4.70
2019-03-09T12:41:02.398Z,5.33
2019-03-09T12:51:07.586Z,6.50
2019-03-09T13:01:12.609Z,4.58
2019-03-09T13:11:17.592Z,4.87
2019-03-09T13:21:22.473Z,4.20
2019-03-09T13:31:27.373Z,3.13
2019-03-09T13:41:33.085Z,5.40
2019-03-09T13:51:37.989Z,4.10
2019-03-09T14:01:42.918Z,2.77
2019-03-09T14:11:48.822Z,3.10
2019-03-09T14:21:54.693Z,2.93
2019-03-09T14:31:59.560Z,2.90
2019-03-09T14:42:05.092Z,6.67
2019-03-09T14:52:09.983Z,5.53
2019-03-09T15:02:15.015Z,3.40
2019-03-09T15:12:19.998Z,4.10
2019-03-09T15:22:25.059Z,4.43
2019-03-09T15:32:30.037Z,4.70
2019-03-09T15:42:34.947Z,9.90
2019-03-09T15:52:41.101Z,5.70
2019-03-09T16:02:46.042Z,7.23
2019-03-09T16:12:51.087Z,12.93
2019-03-09T16:22:56.067Z,8.13
2019-03-09T16:33:01.045Z,11.53
2019-03-09T16:43:06.129Z,11.00
2019-03-09T16:53:11.043Z,6.43
2019-03-09T17:03:16.073Z,6.05
2019-03-09T17:13:21.064Z,6.05
2019-03-09T17:23:25.987Z,7.10
2019-03-09T17:33:32.053Z,6.80
2019-03-09T17:43:37.017Z,2.83
2019-03-09T17:53:42.047Z,2.73
2019-03-09T18:03:47.202Z,2.13
2019-03-09T18:24:17.605Z,8.13
2019-03-09T18:34:22.700Z,11.80
2019-03-09T18:44:27.678Z,12.00
2019-03-09T18:54:32.854Z,7.80
2019-03-09T19:04:38.422Z,6.20
2019-03-09T19:14:44.467Z,6.20
2019-03-09T19:24:49.450Z,6.37
2019-03-09T19:34:54.372Z,6.80
2019-03-09T19:44:59.272Z,6.23
2019-03-09T19:55:06.373Z,6.95
2019-03-09T20:05:12.815Z,7.93
2019-03-09T20:15:18.803Z,6.75
2019-03-09T20:25:23.968Z,5.50
2019-03-09T20:35:29.088Z,5.20
2019-03-09T20:45:45.492Z,3.80
2019-03-09T20:55:52.123Z,3.83
2019-03-09T21:05:57.011Z,5.90
2019-03-09T21:16:02.423Z,3.57
2019-03-09T21:26:07.652Z,3.77
2019-03-09T21:36:12.538Z,3.33
2019-03-09T21:46:17.437Z,3.30
2019-03-09T21:56:22.459Z,3.55
2019-03-09T22:06:27.538Z,3.73
2019-03-09T22:16:32.421Z,1.60
2019-03-09T22:26:37.408Z,4.27
2019-03-09T22:36:42.288Z,4.00
2019-03-09T22:46:47.259Z,4.67
2019-03-09T22:56:52.149Z,2.83
2019-03-09T23:06:57.039Z,2.03
2019-03-09T23:17:01.959Z,0.90
2019-03-09T23:27:06.827Z,0.80
2019-03-09T23:37:11.702Z,0.60
2019-03-09T23:47:16.676Z,0.80
2019-03-09T23:57:21.516Z,1.20
